Time;durP1;ratioP1;P1;durP2;ratioP2;P2;SDS_P1;SDS_P2;PMS_P1;PMS_P2;Temp;Humidity;BMP_temperature;BMP_pressure;BME280_temperature;BME280_humidity;BME280_pressure;Samples;Min_cycle;Max_cycle;Signal;HPM_P1;HPM_P2
2023/09/20 00:00:07;;;;;;;;;;;;;;;;;;5072874;28;19931;-68
2023/09/20 00:02:40;;;;;;;;;;;;;;;;;;5069954;28;19939;-68
2023/09/20 00:05:07;;;;;;;;;;;;;;;;;;5073328;28;19925;-68
2023/09/20 00:07:34;;;;;;;;;;;;;;;;;;5071304;28;19968;-68
2023/09/20 00:10:01;;;;;;;;;;;;;;;;;;5072935;28;19982;-69
2023/09/20 00:12:38;;;;;;;;;;;;;;;;;;5109979;27;19942;-69
2023/09/20 00:15:05;;;;;;;;;;;;;;;;;;5114026;28;19932;-69
2023/09/20 00:17:33;;;;;;;;;;;;;;;;;;5112780;28;20467;-70
2023/09/20 00:20:09;;;;;;;;;;;;;;;;;;5114495;28;20003;-69
2023/09/20 00:22:37;;;;;;;;;;;;;;;;;;5127491;28;19976;-69
2023/09/20 00:25:04;;;;;;;;;;;;;;;;;;5130662;28;19931;-69
2023/09/20 00:27:31;;;;;;;;;;;;;;;;;;5121217;28;19953;-69
2023/09/20 00:29:58;;;;;;;;;;;;;;;;;;5131037;27;19927;-69
2023/09/20 00:32:25;;;;;;;;;;;;;;;;;;5127974;27;19981;-69
2023/09/20 00:34:52;;;;;;;;;;;;;;;;;;5121543;27;19967;-69
2023/09/20 00:37:19;;;;;;;;;;;;;;;;;;5125015;28;19924;-69
2023/09/20 00:39:46;;;;;;;;;;;;;;;;;;5120537;28;19927;-69
2023/09/20 00:42:13;;;;;;;;;;;;;;;;;;5113473;28;19928;-69
2023/09/20 00:44:40;;;;;;;;;;;;;;;;;;5098300;28;19975;-69
2023/09/20 00:47:07;;;;;;;;;;;;;;;;;;5109356;28;19932;-69
2023/09/20 00:49:35;;;;;;;;;;;;;;;;;;5109679;28;20341;-69
2023/09/20 00:52:03;;;;;;;;;;;;;;;;;;5101643;28;19924;-69
2023/09/20 00:54:30;;;;;;;;;;;;;;;;;;5109420;28;19924;-69
2023/09/20 00:56:57;;;;;;;;;;;;;;;;;;5109091;28;19984;-69
2023/09/20 00:59:24;;;;;;;;;;;;;;;;;;5105661;28;19954;-69
2023/09/20 01:01:51;;;;;;;;;;;;;;;;;;5108774;28;19924;-69
2023/09/20 01:04:18;;;;;;;;;;;;;;;;;;5108507;28;19931;-69
2023/09/20 01:06:46;;;;;;;;;;;;;;;;;;5108602;28;19924;-69
2023/09/20 01:09:13;;;;;;;;;;;;;;;;;;5104969;28;19927;-69
2023/09/20 01:11:40;;;;;;;;;;;;;;;;;;5108784;28;20011;-69
2023/09/20 01:14:07;;;;;;;;;;;;;;;;;;5107463;28;19977;-69
2023/09/20 01:16:36;;;;;;;;;;;;;;;;;;5109118;28;19938;-69
2023/09/20 01:19:04;;;;;;;;;;;;;;;;;;5107715;28;19947;-69
2023/09/20 01:21:31;;;;;;;;;;;;;;;;;;5108503;28;19924;-69
2023/09/20 01:23:58;;;;;;;;;;;;;;;;;;5094058;28;20302;-70
2023/09/20 01:26:25;;;;;;;;;;;;;;;;;;5082041;28;19970;-68
2023/09/20 01:28:52;;;;;;;;;;;;;;;;;;5075381;28;20345;-69
2023/09/20 01:31:19;;;;;;;;;;;;;;;;;;5094365;28;20089;-68
2023/09/20 01:33:46;;;;;;;;;;;;;;;;;;5094899;28;20479;-69
2023/09/20 01:36:13;;;;;;;;;;;;;;;;;;5092614;28;19970;-69
2023/09/20 01:38:42;;;;;;;;;;;;;;;;;;5089012;28;19928;-68
2023/09/20 01:41:09;;;;;;;;;;;;;;;;;;5095022;28;19928;-68
2023/09/20 01:43:37;;;;;;;;;;;;;;;;;;5080757;28;19932;-68
2023/09/20 01:46:05;;;;;;;;;;;;;;;;;;5087530;28;19924;-68
2023/09/20 01:48:32;;;;;;;;;;;;;;;;;;5095338;28;19931;-69
2023/09/20 01:50:59;;;;;;;;;;;;;;;;;;5098087;28;19924;-68
2023/09/20 01:53:26;;;;;;;;;;;;;;;;;;5097053;28;19924;-68
2023/09/20 01:55:53;;;;;;;;;;;;;;;;;;5095504;28;19986;-69
2023/09/20 01:58:20;;;;;;;;;;;;;;;;;;5093539;28;19985;-68
2023/09/20 02:00:50;;;;;;;;;;;;;;;;;;5094591;28;19985;-69
2023/09/20 02:03:17;;;;;;;;;;;;;;;;;;5094536;28;19924;-70
2023/09/20 02:05:46;;;;;;;;;;;;;;;;;;5093889;28;19924;-69
2023/09/20 02:08:13;;;;;;;;;;;;;;;;;;5093864;28;19924;-69
2023/09/20 02:10:40;;;;;;;;;;;;;;;;;;5094705;28;19977;-69
2023/09/20 02:13:07;;;;;;;;;;;;;;;;;;5094269;28;19924;-69
2023/09/20 02:15:34;;;;;;;;;;;;;;;;;;5093670;28;20018;-69
2023/09/20 02:18:03;;;;;;;;;;;;;;;;;;5092949;28;19977;-70
2023/09/20 02:20:34;;;;;;;;;;;;;;;;;;5094380;28;19977;-69
2023/09/20 02:23:01;;;;;;;;;;;;;;;;;;5093934;28;19930;-69
2023/09/20 02:25:28;;;;;;;;;;;;;;;;;;5092909;28;20440;-69
2023/09/20 02:27:57;;;;;;;;;;;;;;;;;;5093647;28;20315;-69
2023/09/20 02:30:28;;;;;;;;;;;;;;;;;;5091774;28;19993;-69
2023/09/20 02:32:57;;;;;;;;;;;;;;;;;;5090004;28;19969;-69
2023/09/20 02:35:24;;;;;;;;;;;;;;;;;;5092413;28;19971;-69
2023/09/20 02:37:53;;;;;;;;;;;;;;;;;;5091845;28;19924;-69
2023/09/20 02:40:23;;;;;;;;;;;;;;;;;;5093023;28;20441;-70
2023/09/20 02:42:52;;;;;;;;;;;;;;;;;;5092152;28;19924;-69
2023/09/20 02:45:19;;;;;;;;;;;;;;;;;;5092998;28;19981;-70
2023/09/20 02:47:46;;;;;;;;;;;;;;;;;;5093225;28;19935;-69
2023/09/20 02:50:14;;;;;;;;;;;;;;;;;;5091154;28;20014;-70
2023/09/20 02:52:41;;;;;;;;;;;;;;;;;;5090882;28;20383;-70
2023/09/20 02:55:07;;;;;;;;;;;;;;;;;;5093645;28;20019;-69
2023/09/20 02:57:34;;;;;;;;;;;;;;;;;;5093902;28;19924;-70
2023/09/20 03:00:01;;;;;;;;;;;;;;;;;;5092121;28;19924;-70
2023/09/20 03:02:34;;;;;;;;;;;;;;;;;;5092424;28;19975;-69
2023/09/20 03:05:01;;;;;;;;;;;;;;;;;;5093379;28;19930;-69
2023/09/20 03:07:28;;;;;;;;;;;;;;;;;;5089874;28;20532;-69
2023/09/20 03:09:56;;;;;;;;;;;;;;;;;;5091714;28;19964;-70
2023/09/20 03:12:23;;;;;;;;;;;;;;;;;;5092204;28;20011;-70
2023/09/20 03:14:53;;;;;;;;;;;;;;;;;;5093040;28;20428;-70
2023/09/20 03:17:20;;;;;;;;;;;;;;;;;;5092868;28;20030;-70
2023/09/20 03:19:47;;;;;;;;;;;;;;;;;;5091536;28;20379;-70
2023/09/20 03:22:14;;;;;;;;;;;;;;;;;;5091585;28;19924;-69
2023/09/20 03:24:42;;;;;;;;;;;;;;;;;;5089029;28;20342;-69
2023/09/20 03:27:12;;;;;;;;;;;;;;;;;;5092064;28;20438;-70
2023/09/20 03:29:40;;;;;;;;;;;;;;;;;;5093169;28;19967;-70
2023/09/20 03:32:07;;;;;;;;;;;;;;;;;;5092969;28;19992;-70
2023/09/20 03:34:34;;;;;;;;;;;;;;;;;;5090624;28;20002;-69
2023/09/20 03:37:01;;;;;;;;;;;;;;;;;;5092409;28;20379;-69
2023/09/20 03:39:28;;;;;;;;;;;;;;;;;;5092516;28;19978;-69
2023/09/20 03:41:57;;;;;;;;;;;;;;;;;;5092000;28;19928;-69
2023/09/20 03:44:25;;;;;;;;;;;;;;;;;;5092656;28;19932;-70
2023/09/20 03:46:51;;;;;;;;;;;;;;;;;;5091546;28;19928;-69
2023/09/20 03:49:21;;;;;;;;;;;;;;;;;;5087058;28;19924;-70
2023/09/20 03:51:48;;;;;;;;;;;;;;;;;;5091919;28;20364;-69
2023/09/20 03:54:16;;;;;;;;;;;;;;;;;;5091733;28;19950;-70
2023/09/20 03:56:44;;;;;;;;;;;;;;;;;;5072408;28;19947;-70
2023/09/20 03:59:12;;;;;;;;;;;;;;;;;;5088995;28;20275;-70
2023/09/20 04:01:39;;;;;;;;;;;;;;;;;;5092574;28;20061;-70
2023/09/20 04:04:08;;;;;;;;;;;;;;;;;;5091852;28;19932;-71
2023/09/20 04:06:35;;;;;;;;;;;;;;;;;;5089776;28;19924;-69
2023/09/20 04:09:09;;;;;;;;;;;;;;;;;;5089206;28;20001;-69
2023/09/20 04:11:36;;;;;;;;;;;;;;;;;;5087687;28;20359;-69
2023/09/20 04:14:03;;;;;;;;;;;;;;;;;;5090370;28;20328;-70
2023/09/20 04:16:30;;;;;;;;;;;;;;;;;;5083237;28;19942;-70
2023/09/20 04:18:58;;;;;;;;;;;;;;;;;;5091706;28;19984;-70
2023/09/20 04:21:25;;;;;;;;;;;;;;;;;;5091706;28;19932;-70
2023/09/20 04:23:52;;;;;;;;;;;;;;;;;;5092297;28;19924;-70
2023/09/20 04:26:19;;;;;;;;;;;;;;;;;;5091994;28;20410;-70
2023/09/20 04:28:46;;;;;;;;;;;;;;;;;;5091755;28;19924;-70
2023/09/20 04:31:13;;;;;;;;;;;;;;;;;;5091394;28;19924;-70
2023/09/20 04:33:40;;;;;;;;;;;;;;;;;;5077025;28;19929;-70
2023/09/20 04:36:07;;;;;;;;;;;;;;;;;;5071649;28;19970;-70
2023/09/20 04:38:34;;;;;;;;;;;;;;;;;;5081697;28;19924;-70
2023/09/20 04:41:01;;;;;;;;;;;;;;;;;;5091379;28;19927;-70
2023/09/20 04:43:30;;;;;;;;;;;;;;;;;;5091365;28;19928;-70
2023/09/20 04:45:57;;;;;;;;;;;;;;;;;;5092302;28;19930;-70
2023/09/20 04:48:24;;;;;;;;;;;;;;;;;;5091759;28;20217;-70
2023/09/20 04:50:51;;;;;;;;;;;;;;;;;;5075178;28;19970;-70
2023/09/20 04:53:18;;;;;;;;;;;;;;;;;;5083147;28;19924;-70
2023/09/20 04:55:45;;;;;;;;;;;;;;;;;;5091754;28;19938;-70
2023/09/20 04:58:12;;;;;;;;;;;;;;;;;;5092792;28;20283;-70
2023/09/20 05:00:39;;;;;;;;;;;;;;;;;;5078549;28;19970;-70
2023/09/20 05:03:06;;;;;;;;;;;;;;;;;;5086736;28;20337;-70
2023/09/20 05:05:34;;;;;;;;;;;;;;;;;;5078981;28;19928;-70
2023/09/20 05:08:01;;;;;;;;;;;;;;;;;;5085832;28;19924;-69
2023/09/20 05:10:28;;;;;;;;;;;;;;;;;;5095147;28;19974;-69
2023/09/20 05:12:55;;;;;;;;;;;;;;;;;;5094542;28;19977;-69
2023/09/20 05:15:23;;;;;;;;;;;;;;;;;;5095400;28;19924;-70
2023/09/20 05:17:51;;;;;;;;;;;;;;;;;;5092335;28;20007;-70
2023/09/20 05:20:18;;;;;;;;;;;;;;;;;;5090306;28;19924;-69
2023/09/20 05:22:45;;;;;;;;;;;;;;;;;;5091804;28;19932;-69
2023/09/20 05:25:12;;;;;;;;;;;;;;;;;;5089693;28;19978;-69
2023/09/20 05:27:40;;;;;;;;;;;;;;;;;;5093589;28;19946;-69
2023/09/20 05:30:07;;;;;;;;;;;;;;;;;;5093916;28;19999;-70
2023/09/20 05:32:34;;;;;;;;;;;;;;;;;;5094255;28;20693;-68
2023/09/20 05:35:01;;;;;;;;;;;;;;;;;;5092489;28;20387;-68
2023/09/20 05:37:28;;;;;;;;;;;;;;;;;;5093730;28;19932;-68
2023/09/20 05:39:55;;;;;;;;;;;;;;;;;;5092462;28;20025;-69
2023/09/20 05:42:22;;;;;;;;;;;;;;;;;;5084771;28;19924;-68
2023/09/20 05:44:49;;;;;;;;;;;;;;;;;;5095023;28;19981;-68
2023/09/20 05:47:16;;;;;;;;;;;;;;;;;;5094814;28;19928;-68
2023/09/20 05:49:44;;;;;;;;;;;;;;;;;;5089155;28;19969;-69
2023/09/20 05:52:11;;;;;;;;;;;;;;;;;;5093385;28;19924;-70
2023/09/20 05:54:38;;;;;;;;;;;;;;;;;;5093993;28;19924;-69
2023/09/20 05:57:06;;;;;;;;;;;;;;;;;;5091445;28;19932;-69
2023/09/20 05:59:33;;;;;;;;;;;;;;;;;;5093096;28;19925;-69
2023/09/20 06:02:00;;;;;;;;;;;;;;;;;;5093993;28;20577;-69
2023/09/20 06:04:27;;;;;;;;;;;;;;;;;;5094127;28;19977;-70
2023/09/20 06:06:54;;;;;;;;;;;;;;;;;;5092677;28;20233;-69
2023/09/20 06:09:22;;;;;;;;;;;;;;;;;;5093629;28;20206;-70
2023/09/20 06:11:50;;;;;;;;;;;;;;;;;;5093443;28;19924;-69
2023/09/20 06:14:17;;;;;;;;;;;;;;;;;;5090641;28;19964;-69
2023/09/20 06:16:44;;;;;;;;;;;;;;;;;;5089401;28;20387;-69
2023/09/20 06:19:11;;;;;;;;;;;;;;;;;;5088122;28;19971;-68
2023/09/20 06:21:38;;;;;;;;;;;;;;;;;;5090007;28;20365;-69
2023/09/20 06:24:07;;;;;;;;;;;;;;;;;;5092890;28;20019;-69
2023/09/20 06:26:34;;;;;;;;;;;;;;;;;;5092455;28;19924;-69
2023/09/20 06:29:01;;;;;;;;;;;;;;;;;;5091955;28;20314;-71
2023/09/20 06:31:28;;;;;;;;;;;;;;;;;;5092595;28;19932;-69
2023/09/20 06:33:55;;;;;;;;;;;;;;;;;;5089547;28;19986;-69
2023/09/20 06:36:22;;;;;;;;;;;;;;;;;;5079586;28;21192;-69
2023/09/20 06:38:49;;;;;;;;;;;;;;;;;;5091095;28;19925;-69
2023/09/20 06:41:16;;;;;;;;;;;;;;;;;;5091771;28;19931;-68
2023/09/20 06:43:44;;;;;;;;;;;;;;;;;;5091848;28;19970;-68
2023/09/20 06:46:11;;;;;;;;;;;;;;;;;;5090533;28;19924;-68
2023/09/20 06:48:38;;;;;;;;;;;;;;;;;;5087871;28;20007;-68
2023/09/20 06:51:05;;;;;;;;;;;;;;;;;;5088989;28;19925;-69
2023/09/20 06:53:32;;;;;;;;;;;;;;;;;;5091925;28;20394;-67
2023/09/20 06:55:59;;;;;;;;;;;;;;;;;;5091728;28;19969;-67
2023/09/20 06:58:26;;;;;;;;;;;;;;;;;;5091583;28;19924;-68
2023/09/20 07:00:53;;;;;;;;;;;;;;;;;;5091547;28;19930;-67
2023/09/20 07:03:22;;;;;;;;;;;;;;;;;;5091241;28;20395;-67
2023/09/20 07:05:50;;;;;;;;;;;;;;;;;;5090615;28;20339;-67
2023/09/20 07:08:19;;;;;;;;;;;;;;;;;;5090832;28;19931;-67
2023/09/20 07:10:46;;;;;;;;;;;;;;;;;;5091086;28;20375;-66
2023/09/20 07:13:16;;;;;;;;;;;;;;;;;;5087227;28;20053;-68
2023/09/20 07:15:43;;;;;;;;;;;;;;;;;;5088607;28;19999;-68
2023/09/20 07:18:12;;;;;;;;;;;;;;;;;;5091389;28;19977;-68
2023/09/20 07:20:40;;;;;;;;;;;;;;;;;;5082194;28;20005;-68
2023/09/20 07:23:08;;;;;;;;;;;;;;;;;;5078205;28;19924;-68
2023/09/20 07:25:36;;;;;;;;;;;;;;;;;;5091223;28;20365;-68
2023/09/20 07:28:06;;;;;;;;;;;;;;;;;;5083331;28;20015;-68
2023/09/20 07:30:36;;;;;;;;;;;;;;;;;;5094251;28;20280;-69
2023/09/20 07:33:03;;;;;;;;;;;;;;;;;;5092016;28;19970;-68
2023/09/20 07:35:37;;;;;;;;;;;;;;;;;;5104987;28;19932;-68
2023/09/20 07:38:04;;;;;;;;;;;;;;;;;;5090062;28;19984;-67
2023/09/20 07:40:31;;;;;;;;;;;;;;;;;;5085227;28;19924;-67
2023/09/20 07:43:03;;;;;;;;;;;;;;;;;;5091444;28;19924;-67
2023/09/20 07:45:31;;;;;;;;;;;;;;;;;;5091259;28;20371;-67
2023/09/20 07:48:00;;;;;;;;;;;;;;;;;;5093127;28;19924;-68
2023/09/20 07:50:29;;;;;;;;;;;;;;;;;;5092334;28;19946;-69
2023/09/20 07:52:56;;;;;;;;;;;;;;;;;;5081268;28;20357;-72
2023/09/20 07:55:26;;;;;;;;;;;;;;;;;;5090428;28;19931;-69
2023/09/20 07:57:58;;;;;;;;;;;;;;;;;;5087430;28;19936;-70
2023/09/20 08:00:26;;;;;;;;;;;;;;;;;;5088683;28;19952;-69
2023/09/20 08:02:54;;;;;;;;;;;;;;;;;;5086689;28;19924;-69
2023/09/20 08:05:22;;;;;;;;;;;;;;;;;;5081847;28;19924;-67
2023/09/20 08:07:49;;;;;;;;;;;;;;;;;;5097048;28;19924;-67
2023/09/20 08:10:16;;;;;;;;;;;;;;;;;;5079966;28;19989;-67
2023/09/20 08:12:43;;;;;;;;;;;;;;;;;;5084895;28;20260;-67
2023/09/20 08:15:12;;;;;;;;;;;;;;;;;;5089082;28;19931;-67
2023/09/20 08:20:27;;;;;;;;;;;;;;;;;;5098519;28;19919;-67
2023/09/20 09:01:19;;;;;;;;;;;;;;;;;;5094379;28;19923;-69
2023/09/20 09:03:46;;;;;;;;;;;;;;;;;;5096224;28;19969;-67
2023/09/20 09:06:13;;;;;;;;;;;;;;;;;;5095563;28;19973;-67
2023/09/20 09:08:40;;;;;;;;;;;;;;;;;;5097424;28;20054;-67
2023/09/20 09:11:08;;;;;;;;;;;;;;;;;;5102697;28;19924;-67
2023/09/20 09:13:35;;;;;;;;;;;;;;;;;;5097509;28;19958;-68
2023/09/20 09:16:02;;;;;;;;;;;;;;;;;;5090527;28;19931;-68
2023/09/20 09:18:29;;;;;;;;;;;;;;;;;;5083860;28;19923;-68
2023/09/20 09:20:56;;;;;;;;;;;;;;;;;;5096135;28;19928;-68
2023/09/20 09:23:23;;;;;;;;;;;;;;;;;;5096172;28;20344;-68
2023/09/20 09:25:50;;;;;;;;;;;;;;;;;;5092483;28;19928;-68
2023/09/20 09:28:17;;;;;;;;;;;;;;;;;;5098412;28;20340;-68
2023/09/20 09:30:44;;;;;;;;;;;;;;;;;;5093954;28;20018;-68
2023/09/20 09:33:11;;;;;;;;;;;;;;;;;;5111569;28;19924;-68
2023/09/20 09:35:38;;;;;;;;;;;;;;;;;;5096118;28;19959;-68
2023/09/20 09:38:05;;;;;;;;;;;;;;;;;;5086981;28;19998;-69
2023/09/20 09:40:32;;;;;;;;;;;;;;;;;;5098313;28;19957;-68
2023/09/20 09:43:00;;;;;;;;;;;;;;;;;;5086030;28;19925;-67
2023/09/20 09:45:27;;;;;;;;;;;;;;;;;;5087337;28;19924;-68
2023/09/20 09:47:55;;;;;;;;;;;;;;;;;;5086620;28;19994;-69
2023/09/20 09:50:22;;;;;;;;;;;;;;;;;;5073585;28;19931;-68
2023/09/20 09:52:50;;;;;;;;;;;;;;;;;;5096806;28;19989;-66
2023/09/20 09:55:18;;;;;;;;;;;;;;;;;;5087132;28;19924;-68
2023/09/20 09:57:45;;;;;;;;;;;;;;;;;;5093431;28;19986;-66
2023/09/20 10:00:12;;;;;;;;;;;;;;;;;;5091949;28;20071;-66
2023/09/20 10:02:40;;;;;;;;;;;;;;;;;;5096085;28;19930;-67
2023/09/20 10:05:07;;;;;;;;;;;;;;;;;;5097096;28;19931;-68
2023/09/20 10:07:34;;;;;;;;;;;;;;;;;;5092094;28;19924;-67
2023/09/20 10:10:02;;;;;;;;;;;;;;;;;;5089961;28;19993;-68
2023/09/20 10:12:29;;;;;;;;;;;;;;;;;;5083124;28;19967;-69
2023/09/20 10:14:59;;;;;;;;;;;;;;;;;;5084264;28;19953;-70
2023/09/20 10:17:27;;;;;;;;;;;;;;;;;;5098074;28;20437;-68
2023/09/20 10:19:55;;;;;;;;;;;;;;;;;;5093748;28;19943;-67
2023/09/20 10:22:22;;;;;;;;;;;;;;;;;;5090329;28;19942;-68
2023/09/20 10:24:53;;;;;;;;;;;;;;;;;;5090418;28;20006;-68
2023/09/20 10:27:21;;;;;;;;;;;;;;;;;;5073747;28;19924;-68
2023/09/20 10:29:50;;;;;;;;;;;;;;;;;;5100184;28;19950;-68
2023/09/20 10:32:18;;;;;;;;;;;;;;;;;;5089702;28;20354;-67
2023/09/20 10:34:45;;;;;;;;;;;;;;;;;;5095914;28;19977;-68
2023/09/20 10:37:12;;;;;;;;;;;;;;;;;;5099859;28;19977;-68
2023/09/20 10:39:39;;;;;;;;;;;;;;;;;;5082318;28;19947;-67
2023/09/20 10:42:07;;;;;;;;;;;;;;;;;;5089857;28;19928;-67
2023/09/20 10:44:36;;;;;;;;;;;;;;;;;;5082712;28;19932;-67
2023/09/20 10:47:03;;;;;;;;;;;;;;;;;;5077898;28;19966;-67
2023/09/20 10:49:30;;;;;;;;;;;;;;;;;;5096590;28;19924;-67
2023/09/20 10:51:57;;;;;;;;;;;;;;;;;;5087171;28;19933;-68
2023/09/20 10:54:25;;;;;;;;;;;;;;;;;;5082268;28;19969;-68
2023/09/20 10:56:51;;;;;;;;;;;;;;;;;;5082502;28;20461;-68
2023/09/20 10:59:18;;;;;;;;;;;;;;;;;;5089834;28;19924;-68
2023/09/20 11:01:45;;;;;;;;;;;;;;;;;;5086543;28;19946;-68
2023/09/20 11:04:13;;;;;;;;;;;;;;;;;;5080860;28;19932;-68
2023/09/20 11:06:41;;;;;;;;;;;;;;;;;;5084193;28;20072;-67
2023/09/20 11:09:11;;;;;;;;;;;;;;;;;;5091174;28;19981;-68
2023/09/20 11:11:38;;;;;;;;;;;;;;;;;;5087016;28;19924;-69
2023/09/20 11:14:06;;;;;;;;;;;;;;;;;;5091798;28;19930;-69
2023/09/20 11:16:33;;;;;;;;;;;;;;;;;;5084214;28;19925;-68
2023/09/20 11:19:00;;;;;;;;;;;;;;;;;;5103294;28;19928;-70
2023/09/20 11:21:27;;;;;;;;;;;;;;;;;;5085070;28;20272;-68
2023/09/20 11:23:54;;;;;;;;;;;;;;;;;;5076365;28;19965;-68
2023/09/20 11:26:21;;;;;;;;;;;;;;;;;;5098462;28;20337;-69
2023/09/20 11:28:48;;;;;;;;;;;;;;;;;;5096859;28;20027;-68
2023/09/20 11:31:16;;;;;;;;;;;;;;;;;;5100144;28;19924;-69
2023/09/20 11:33:45;;;;;;;;;;;;;;;;;;5084381;28;19932;-68
2023/09/20 11:36:14;;;;;;;;;;;;;;;;;;5090673;28;20302;-68
2023/09/20 11:38:42;;;;;;;;;;;;;;;;;;5083928;28;20413;-68
2023/09/20 11:41:09;;;;;;;;;;;;;;;;;;5090955;28;19949;-70
2023/09/20 11:43:36;;;;;;;;;;;;;;;;;;5079911;28;19932;-70
2023/09/20 11:46:04;;;;;;;;;;;;;;;;;;5093520;28;19947;-68
2023/09/20 11:48:31;;;;;;;;;;;;;;;;;;5089416;28;20302;-68
2023/09/20 11:50:59;;;;;;;;;;;;;;;;;;5097080;28;19928;-70
2023/09/20 11:53:26;;;;;;;;;;;;;;;;;;5086514;28;20017;-70
2023/09/20 11:55:53;;;;;;;;;;;;;;;;;;5079930;28;20300;-70
2023/09/20 11:58:20;;;;;;;;;;;;;;;;;;5085929;28;19930;-69
2023/09/20 12:00:47;;;;;;;;;;;;;;;;;;5087069;28;19967;-69
2023/09/20 12:03:14;;;;;;;;;;;;;;;;;;5090148;28;20340;-69
2023/09/20 12:05:42;;;;;;;;;;;;;;;;;;5089870;28;19924;-70
2023/09/20 12:08:09;;;;;;;;;;;;;;;;;;5092252;28;20387;-70
2023/09/20 12:10:36;;;;;;;;;;;;;;;;;;5088871;28;19928;-70
2023/09/20 12:13:06;;;;;;;;;;;;;;;;;;5092755;28;19970;-70
2023/09/20 12:15:38;;;;;;;;;;;;;;;;;;5093298;28;20022;-70
2023/09/20 12:18:05;;;;;;;;;;;;;;;;;;5089717;28;19924;-69
2023/09/20 12:20:35;;;;;;;;;;;;;;;;;;5089259;28;19977;-69
2023/09/20 12:23:03;;;;;;;;;;;;;;;;;;5084014;28;19924;-70
2023/09/20 12:25:32;;;;;;;;;;;;;;;;;;5085337;28;20026;-69
2023/09/20 12:27:59;;;;;;;;;;;;;;;;;;5091422;28;19966;-69
2023/09/20 12:30:27;;;;;;;;;;;;;;;;;;5079181;28;20368;-69
2023/09/20 12:32:56;;;;;;;;;;;;;;;;;;5089466;28;19935;-68
2023/09/20 12:35:23;;;;;;;;;;;;;;;;;;5086994;28;19952;-69
2023/09/20 12:37:51;;;;;;;;;;;;;;;;;;5082461;28;19924;-70
2023/09/20 12:40:21;;;;;;;;;;;;;;;;;;5078775;28;20394;-70
2023/09/20 12:42:48;;;;;;;;;;;;;;;;;;5083456;28;19924;-70
2023/09/20 12:45:15;;;;;;;;;;;;;;;;;;5085148;28;19947;-69
2023/09/20 12:47:42;;;;;;;;;;;;;;;;;;5076362;28;19924;-69
2023/09/20 12:50:12;;;;;;;;;;;;;;;;;;5080597;28;19940;-69
2023/09/20 12:52:39;;;;;;;;;;;;;;;;;;5080533;28;19975;-69
2023/09/20 12:55:06;;;;;;;;;;;;;;;;;;5084540;28;19928;-69
2023/09/20 12:57:38;;;;;;;;;;;;;;;;;;5081649;28;19932;-69
2023/09/20 13:00:05;;;;;;;;;;;;;;;;;;5084077;28;19934;-68
2023/09/20 13:02:32;;;;;;;;;;;;;;;;;;5080480;28;20280;-71
2023/09/20 13:05:00;;;;;;;;;;;;;;;;;;5081269;28;20482;-69
2023/09/20 13:07:27;;;;;;;;;;;;;;;;;;5081017;28;19970;-69
2023/09/20 13:09:57;;;;;;;;;;;;;;;;;;5079368;28;19928;-68
2023/09/20 13:12:24;;;;;;;;;;;;;;;;;;5079009;28;19931;-67
2023/09/20 13:14:51;;;;;;;;;;;;;;;;;;5077008;28;19932;-68
2023/09/20 13:17:20;;;;;;;;;;;;;;;;;;5081043;28;20066;-68
2023/09/20 13:19:47;;;;;;;;;;;;;;;;;;5083387;28;19928;-67
2023/09/20 13:22:14;;;;;;;;;;;;;;;;;;5083062;28;19928;-68
2023/09/20 13:24:42;;;;;;;;;;;;;;;;;;5084160;28;19951;-68
2023/09/20 13:27:09;;;;;;;;;;;;;;;;;;5082463;28;19931;-69
2023/09/20 13:29:36;;;;;;;;;;;;;;;;;;5081111;28;19950;-69
2023/09/20 13:32:03;;;;;;;;;;;;;;;;;;5083046;28;20026;-69
2023/09/20 13:34:30;;;;;;;;;;;;;;;;;;5082418;28;19967;-69
2023/09/20 13:36:57;;;;;;;;;;;;;;;;;;5078424;28;19924;-68
2023/09/20 13:39:24;;;;;;;;;;;;;;;;;;5075826;28;19989;-68
2023/09/20 13:41:53;;;;;;;;;;;;;;;;;;5075404;28;20377;-69
2023/09/20 13:44:22;;;;;;;;;;;;;;;;;;5079999;28;20551;-68
2023/09/20 13:46:50;;;;;;;;;;;;;;;;;;5079966;28;19935;-67
2023/09/20 13:49:17;;;;;;;;;;;;;;;;;;5083657;28;20054;-68
2023/09/20 13:51:44;;;;;;;;;;;;;;;;;;5080100;28;19928;-68
2023/09/20 13:54:12;;;;;;;;;;;;;;;;;;5079231;28;19975;-68
2023/09/20 13:56:40;;;;;;;;;;;;;;;;;;5083908;28;20006;-68
2023/09/20 13:59:07;;;;;;;;;;;;;;;;;;5088493;28;19931;-68
2023/09/20 14:01:38;;;;;;;;;;;;;;;;;;5081263;28;19939;-70
2023/09/20 14:04:05;;;;;;;;;;;;;;;;;;5080330;28;19978;-69
2023/09/20 14:06:32;;;;;;;;;;;;;;;;;;5085475;28;20305;-68
2023/09/20 14:09:00;;;;;;;;;;;;;;;;;;5090635;28;19970;-70
2023/09/20 14:11:27;;;;;;;;;;;;;;;;;;5087068;28;19924;-69
2023/09/20 14:13:54;;;;;;;;;;;;;;;;;;5088141;28;20378;-69
2023/09/20 14:16:21;;;;;;;;;;;;;;;;;;5086700;28;19931;-67
2023/09/20 14:18:49;;;;;;;;;;;;;;;;;;5081723;28;19932;-68
2023/09/20 14:21:17;;;;;;;;;;;;;;;;;;5087441;28;20027;-67
2023/09/20 14:23:44;;;;;;;;;;;;;;;;;;5081768;28;19936;-67
2023/09/20 14:26:11;;;;;;;;;;;;;;;;;;5083721;28;19932;-67
2023/09/20 14:28:40;;;;;;;;;;;;;;;;;;5084975;28;19930;-67
2023/09/20 14:31:07;;;;;;;;;;;;;;;;;;5088896;28;20294;-67
2023/09/20 14:33:34;;;;;;;;;;;;;;;;;;5088440;28;19973;-67
2023/09/20 14:36:03;;;;;;;;;;;;;;;;;;5087768;28;19992;-67
2023/09/20 14:38:31;;;;;;;;;;;;;;;;;;5099818;28;19930;-67
2023/09/20 14:40:59;;;;;;;;;;;;;;;;;;5092015;28;20034;-68
2023/09/20 14:43:26;;;;;;;;;;;;;;;;;;5088730;28;19932;-68
2023/09/20 14:45:53;;;;;;;;;;;;;;;;;;5087417;28;19932;-69
2023/09/20 14:48:20;;;;;;;;;;;;;;;;;;5092105;28;19930;-68
2023/09/20 14:50:47;;;;;;;;;;;;;;;;;;5086739;28;19932;-68
2023/09/20 14:53:18;;;;;;;;;;;;;;;;;;5090421;28;20550;-68
2023/09/20 14:55:45;;;;;;;;;;;;;;;;;;5091668;28;19928;-68
2023/09/20 14:58:12;;;;;;;;;;;;;;;;;;5095830;28;20019;-69
2023/09/20 15:00:39;;;;;;;;;;;;;;;;;;5086938;28;19923;-68
2023/09/20 15:03:06;;;;;;;;;;;;;;;;;;5076662;28;20043;-68
2023/09/20 15:05:34;;;;;;;;;;;;;;;;;;5078303;28;20255;-68
2023/09/20 15:08:01;;;;;;;;;;;;;;;;;;5076307;28;19924;-68
2023/09/20 15:10:29;;;;;;;;;;;;;;;;;;5087656;28;20239;-68
2023/09/20 15:12:57;;;;;;;;;;;;;;;;;;5082018;28;19939;-68
2023/09/20 15:15:24;;;;;;;;;;;;;;;;;;5093011;28;19969;-68
2023/09/20 15:17:51;;;;;;;;;;;;;;;;;;5084652;28;20341;-69
2023/09/20 15:20:19;;;;;;;;;;;;;;;;;;5090732;28;20302;-68
2023/09/20 15:22:46;;;;;;;;;;;;;;;;;;5084915;28;19935;-67
2023/09/20 15:25:14;;;;;;;;;;;;;;;;;;5091820;28;19928;-67
2023/09/20 15:27:42;;;;;;;;;;;;;;;;;;5086753;28;20346;-68
2023/09/20 15:30:09;;;;;;;;;;;;;;;;;;5105712;28;20045;-67
2023/09/20 15:32:37;;;;;;;;;;;;;;;;;;5076632;28;20307;-67
2023/09/20 15:35:04;;;;;;;;;;;;;;;;;;5089019;28;19924;-67
2023/09/20 15:37:31;;;;;;;;;;;;;;;;;;5084489;28;20409;-68
2023/09/20 15:39:58;;;;;;;;;;;;;;;;;;5091675;28;19989;-67
2023/09/20 15:42:25;;;;;;;;;;;;;;;;;;5088374;28;19928;-67
2023/09/20 15:44:54;;;;;;;;;;;;;;;;;;5088684;28;19924;-66
2023/09/20 15:47:21;;;;;;;;;;;;;;;;;;5081735;28;20395;-67
2023/09/20 15:49:48;;;;;;;;;;;;;;;;;;5079533;28;19978;-68
2023/09/20 15:52:15;;;;;;;;;;;;;;;;;;5092301;28;19963;-68
2023/09/20 15:54:42;;;;;;;;;;;;;;;;;;5083778;28;19924;-68
2023/09/20 15:57:10;;;;;;;;;;;;;;;;;;5083988;28;19924;-68
2023/09/20 15:59:38;;;;;;;;;;;;;;;;;;5087472;28;19924;-68
2023/09/20 16:02:05;;;;;;;;;;;;;;;;;;5095339;28;20362;-68
2023/09/20 16:04:33;;;;;;;;;;;;;;;;;;5100826;28;19924;-70
2023/09/20 16:07:00;;;;;;;;;;;;;;;;;;5096789;28;19924;-70
2023/09/20 16:09:27;;;;;;;;;;;;;;;;;;5086887;28;20432;-68
2023/09/20 16:11:54;;;;;;;;;;;;;;;;;;5079668;28;19928;-68
2023/09/20 16:14:23;;;;;;;;;;;;;;;;;;5100624;28;20224;-69
2023/09/20 16:16:50;;;;;;;;;;;;;;;;;;5100259;28;20007;-70
2023/09/20 16:19:17;;;;;;;;;;;;;;;;;;5093614;28;19924;-69
2023/09/20 16:21:44;;;;;;;;;;;;;;;;;;5090400;28;20009;-69
2023/09/20 16:24:11;;;;;;;;;;;;;;;;;;5100487;28;19931;-69
2023/09/20 16:26:39;;;;;;;;;;;;;;;;;;5091601;28;19958;-69
2023/09/20 16:29:07;;;;;;;;;;;;;;;;;;5080313;28;20659;-70
2023/09/20 16:31:34;;;;;;;;;;;;;;;;;;5086562;28;20032;-69
2023/09/20 16:34:01;;;;;;;;;;;;;;;;;;5104704;28;20386;-70
2023/09/20 16:36:28;;;;;;;;;;;;;;;;;;5094561;28;19924;-70
2023/09/20 16:38:56;;;;;;;;;;;;;;;;;;5099693;28;19924;-70
2023/09/20 16:41:23;;;;;;;;;;;;;;;;;;5091523;28;20294;-69
2023/09/20 16:43:50;;;;;;;;;;;;;;;;;;5097563;28;19923;-68
2023/09/20 16:46:17;;;;;;;;;;;;;;;;;;5113666;28;19924;-69
2023/09/20 16:48:44;;;;;;;;;;;;;;;;;;5091772;28;19924;-69
2023/09/20 16:51:11;;;;;;;;;;;;;;;;;;5088871;28;20402;-70
2023/09/20 16:53:38;;;;;;;;;;;;;;;;;;5089741;28;20406;-69
2023/09/20 16:56:05;;;;;;;;;;;;;;;;;;5093229;28;19942;-69
2023/09/20 16:58:33;;;;;;;;;;;;;;;;;;5091291;28;19997;-68
2023/09/20 17:01:00;;;;;;;;;;;;;;;;;;5094591;28;19963;-69
2023/09/20 17:03:27;;;;;;;;;;;;;;;;;;5093751;28;19935;-69
2023/09/20 17:05:54;;;;;;;;;;;;;;;;;;5094792;28;19961;-69
2023/09/20 17:08:21;;;;;;;;;;;;;;;;;;5085351;28;19932;-69
2023/09/20 17:10:49;;;;;;;;;;;;;;;;;;5089790;28;19947;-68
2023/09/20 17:13:16;;;;;;;;;;;;;;;;;;5088580;28;19924;-70
2023/09/20 17:15:43;;;;;;;;;;;;;;;;;;5093336;28;19924;-68
2023/09/20 17:18:10;;;;;;;;;;;;;;;;;;5090397;28;19924;-70
2023/09/20 17:20:38;;;;;;;;;;;;;;;;;;5096238;28;19924;-70
2023/09/20 17:23:05;;;;;;;;;;;;;;;;;;5080450;28;20003;-69
2023/09/20 17:25:33;;;;;;;;;;;;;;;;;;5102079;28;19924;-69
2023/09/20 17:28:00;;;;;;;;;;;;;;;;;;5096049;28;19959;-69